Sheldon Creek, Vermont
Current Conditions -  °F | °C
As of 3:15 PM on Sunday 25 Jan 2015 (Local Time) from KFSO Reporting Station
Clear Clear  
Wind Chill:   Ceiling: Unl
Heat Index: 10°   Visibility: 10mi
Dew Point: -4°   Wind: 6mph
Humidity: 52%   Direction: 300°WNW
Pressure: 29.88"   Gusts: NA
Location:  44.8776°N, 72.9201°W
Report Text: KFSO 252015Z AUTO 30005KT 10SM CLR M12/M20 A2988 RMK AO2 T11201200
Loading
Personal Weather Stations






























Interactive Weather Map New forecast layout! Learn more

10-Day Weather Forecast

Advertisements
Track Severe Weather on mobile